PWSweather.com
Personal Weather Stations
Station Observations
SBERGENWX
Wood Ridge, NJ 07075

Wood Ridge, NJ 07075

Lat: 40.851667, Lon: -74.088131

Elevation: 177

Station Type: Davis Vantage Vue

http://201weather.com/

Latest ConditionsUpdated 10:30:01 AM EDT Wednesday, Apr 25, 2018
Currently Today's Max Today's Min Today's Average
Temperature 56.5°F13.6°C 61.1°F16.2°C 52.6°F11.4°C 59.1°F15.1°C
Dew Point 55.4°F13.0°C 55.4°F13.0°C 24.0°F-4.4°C 32.5°F0.3°C
Winds 5.8 mph SE9.3 kmh SE 5.8 mph SE9.3 kmh SE - 3.0 mph 4.8 kmh
Wind Gusts 9.2 mph14.8 kmh 9.2 mph14.8 kmh - -
Humidity 96% 96% 24% 45%
Pressure 29.86 in1011.2 mb 30.25 in1024.4 mb 29.86 in1011.2 mb -
Precipitation - 0.63 in16.0 mm - -
Hour Temp Dew Point Humidity Winds Wind Gusts Pressure Precip Precip Rate Daily Precip Total
10:30 AM 56.5°F13.6°C 55.4°F13.0°C 96% 5.8 mph SE9.3 kmh SE 9.2 mph14.8 kmh 29.86 in1011.2 mb - 0.02 in0.5 mm 0.63 in16.0 mm
10:15 AM 55.9°F13.3°C 54.8°F12.7°C 96% 3.5 mph SE5.6 kmh SE 8.1 mph13.0 kmh 29.87 in1011.5 mb - 0.00 in0.0 mm 0.61 in15.5 mm
10:00 AM 55.0°F12.8°C 53.9°F12.2°C 96% 2.3 mph SE3.7 kmh SE 3.5 mph5.6 kmh 29.88 in1011.9 mb - 0.00 in0.0 mm 0.61 in15.5 mm
09:45 AM 54.5°F12.5°C 53.4°F11.9°C 96% 2.3 mph NE3.7 kmh NE 2.3 mph3.7 kmh 29.88 in1011.9 mb - 0.00 in0.0 mm 0.61 in15.5 mm
09:30 AM 54.2°F12.3°C 53.1°F11.7°C 96% 1.2 mph NE1.9 kmh NE 2.3 mph3.7 kmh 29.89 in1012.2 mb - 0.01 in0.3 mm 0.61 in15.5 mm
09:15 AM 54.1°F12.3°C 53.0°F11.7°C 96% Calm Calm 1.2 mph1.9 kmh 29.90 in1012.5 mb - 0.03 in0.8 mm 0.60 in15.2 mm
09:00 AM 53.9°F12.2°C 52.8°F11.6°C 96% 1.2 mph SE1.9 kmh SE 3.5 mph5.6 kmh 29.90 in1012.5 mb - 0.06 in1.5 mm 0.57 in14.5 mm
08:45 AM 53.7°F12.1°C 52.6°F11.4°C 96% 1.2 mph SE1.9 kmh SE 2.3 mph3.7 kmh 29.91 in1012.9 mb - 0.05 in1.3 mm 0.51 in13.0 mm
08:30 AM 53.6°F12.0°C 52.5°F11.4°C 96% 1.2 mph E1.9 kmh E 3.5 mph5.6 kmh 29.92 in1013.2 mb - 0.02 in0.5 mm 0.46 in11.7 mm
08:15 AM 53.3°F11.8°C 52.2°F11.2°C 96% 2.3 mph E3.7 kmh E 3.5 mph5.6 kmh 29.92 in1013.2 mb - 0.04 in1.0 mm 0.44 in11.2 mm
08:00 AM 52.9°F11.6°C 51.8°F11.0°C 96% Calm Calm 2.3 mph3.7 kmh 29.92 in1013.2 mb - 0.02 in0.5 mm 0.40 in10.2 mm
07:45 AM 52.6°F11.4°C 51.5°F10.8°C 96% 1.2 mph E1.9 kmh E 3.5 mph5.6 kmh 29.93 in1013.5 mb - 0.07 in1.8 mm 0.38 in9.7 mm
07:00 AM 61.1°F16.2°C 24.0°F-4.4°C 24% 3.5 mph W5.6 kmh W 3.5 mph5.6 kmh 30.25 in1024.4 mb - 0.00 in0.0 mm 0.00 in0.0 mm
06:45 AM 61.1°F16.2°C 24.0°F-4.4°C 24% 3.5 mph W5.6 kmh W 3.5 mph5.6 kmh 30.25 in1024.4 mb - 0.00 in0.0 mm 0.00 in0.0 mm
06:30 AM 61.1°F16.2°C 24.0°F-4.4°C 24% 3.5 mph W5.6 kmh W 3.5 mph5.6 kmh 30.25 in1024.4 mb - 0.00 in0.0 mm 0.00 in0.0 mm
06:15 AM 61.1°F16.2°C 24.0°F-4.4°C 24% 3.5 mph W5.6 kmh W 3.5 mph5.6 kmh 30.25 in1024.4 mb - 0.00 in0.0 mm 0.00 in0.0 mm
06:00 AM 61.1°F16.2°C 24.0°F-4.4°C 24% 3.5 mph W5.6 kmh W 3.5 mph5.6 kmh 30.25 in1024.4 mb - 0.00 in0.0 mm 0.00 in0.0 mm
05:45 AM 61.1°F16.2°C 24.0°F-4.4°C 24% 3.5 mph W5.6 kmh W 3.5 mph5.6 kmh 30.25 in1024.4 mb - 0.00 in0.0 mm 0.00 in0.0 mm
05:30 AM 61.1°F16.2°C 24.0°F-4.4°C 24% 3.5 mph W5.6 kmh W 3.5 mph5.6 kmh 30.25 in1024.4 mb - 0.00 in0.0 mm 0.00 in0.0 mm
05:15 AM 61.1°F16.2°C 24.0°F-4.4°C 24% 3.5 mph W5.6 kmh W 3.5 mph5.6 kmh 30.25 in1024.4 mb - 0.00 in0.0 mm 0.00 in0.0 mm
05:00 AM 61.1°F16.2°C 24.0°F-4.4°C 24% 3.5 mph W5.6 kmh W 3.5 mph5.6 kmh 30.25 in1024.4 mb - 0.00 in0.0 mm 0.00 in0.0 mm
04:45 AM 61.1°F16.2°C 24.0°F-4.4°C 24% 3.5 mph W5.6 kmh W 3.5 mph5.6 kmh 30.25 in1024.4 mb - 0.00 in0.0 mm 0.00 in0.0 mm
04:30 AM 61.1°F16.2°C 24.0°F-4.4°C 24% 3.5 mph W5.6 kmh W 3.5 mph5.6 kmh 30.25 in1024.4 mb - 0.00 in0.0 mm 0.00 in0.0 mm
04:15 AM 61.1°F16.2°C 24.0°F-4.4°C 24% 3.5 mph W5.6 kmh W 3.5 mph5.6 kmh 30.25 in1024.4 mb - 0.00 in0.0 mm 0.00 in0.0 mm
04:00 AM 61.1°F16.2°C 24.0°F-4.4°C 24% 3.5 mph W5.6 kmh W 3.5 mph5.6 kmh 30.25 in1024.4 mb - 0.00 in0.0 mm 0.00 in0.0 mm
03:45 AM 61.1°F16.2°C 24.0°F-4.4°C 24% 3.5 mph W5.6 kmh W 3.5 mph5.6 kmh 30.25 in1024.4 mb - 0.00 in0.0 mm 0.00 in0.0 mm
03:30 AM 61.1°F16.2°C 24.0°F-4.4°C 24% 3.5 mph W5.6 kmh W 3.5 mph5.6 kmh 30.25 in1024.4 mb - 0.00 in0.0 mm 0.00 in0.0 mm
03:15 AM 61.1°F16.2°C 24.0°F-4.4°C 24% 3.5 mph W5.6 kmh W 3.5 mph5.6 kmh 30.25 in1024.4 mb - 0.00 in0.0 mm 0.00 in0.0 mm
03:00 AM 61.1°F16.2°C 24.0°F-4.4°C 24% 3.5 mph W5.6 kmh W 3.5 mph5.6 kmh 30.25 in1024.4 mb - 0.00 in0.0 mm 0.00 in0.0 mm
02:45 AM 61.1°F16.2°C 24.0°F-4.4°C 24% 3.5 mph W5.6 kmh W 3.5 mph5.6 kmh 30.25 in1024.4 mb - 0.00 in0.0 mm 0.00 in0.0 mm
02:30 AM 61.1°F16.2°C 24.0°F-4.4°C 24% 3.5 mph W5.6 kmh W 3.5 mph5.6 kmh 30.25 in1024.4 mb - 0.00 in0.0 mm 0.00 in0.0 mm
02:15 AM 61.1°F16.2°C 24.0°F-4.4°C 24% 3.5 mph W5.6 kmh W 3.5 mph5.6 kmh 30.25 in1024.4 mb - 0.00 in0.0 mm 0.00 in0.0 mm
02:00 AM 61.1°F16.2°C 24.0°F-4.4°C 24% 3.5 mph W5.6 kmh W 3.5 mph5.6 kmh 30.25 in1024.4 mb - 0.00 in0.0 mm 0.00 in0.0 mm
01:45 AM 61.1°F16.2°C 24.0°F-4.4°C 24% 3.5 mph W5.6 kmh W 3.5 mph5.6 kmh 30.25 in1024.4 mb - 0.00 in0.0 mm 0.00 in0.0 mm
01:30 AM 61.1°F16.2°C 24.0°F-4.4°C 24% 3.5 mph W5.6 kmh W 3.5 mph5.6 kmh 30.25 in1024.4 mb - 0.00 in0.0 mm 0.00 in0.0 mm
01:15 AM 61.1°F16.2°C 24.0°F-4.4°C 24% 3.5 mph W5.6 kmh W 3.5 mph5.6 kmh 30.25 in1024.4 mb - 0.00 in0.0 mm 0.00 in0.0 mm
01:00 AM 61.1°F16.2°C 24.0°F-4.4°C 24% 3.5 mph W5.6 kmh W 3.5 mph5.6 kmh 30.25 in1024.4 mb - 0.00 in0.0 mm 0.00 in0.0 mm
12:45 AM 61.1°F16.2°C 24.0°F-4.4°C 24% 3.5 mph W5.6 kmh W 3.5 mph5.6 kmh 30.25 in1024.4 mb - 0.00 in0.0 mm 0.00 in0.0 mm
12:30 AM 61.1°F16.2°C 24.0°F-4.4°C 24% 3.5 mph W5.6 kmh W 3.5 mph5.6 kmh 30.25 in1024.4 mb - 0.00 in0.0 mm 0.00 in0.0 mm
12:15 AM 61.1°F16.2°C 24.0°F-4.4°C 24% 3.5 mph W5.6 kmh W 3.5 mph5.6 kmh 30.25 in1024.4 mb - 0.00 in0.0 mm 0.00 in0.0 mm
12:00 AM 61.1°F16.2°C 24.0°F-4.4°C 24% 3.5 mph W5.6 kmh W 3.5 mph5.6 kmh 30.25 in1024.4 mb - 0.00 in0.0 mm 0.00 in0.0 mm